Time;durP1;ratioP1;P1;durP2;ratioP2;P2;SDS_P1;SDS_P2;PMS_P1;PMS_P2;Temp;Humidity;BMP_temperature;BMP_pressure;BME280_temperature;BME280_humidity;BME280_pressure;Samples;Min_cycle;Max_cycle;Signal;HPM_P1;HPM_P2
2024/04/09 00:01:33;;;;;;;38.60;26.20;;;;;;;13.55;82.87;100609.96;108688;1260;71575;-67
2024/04/09 00:04:00;;;;;;;38.40;25.80;;;;;;;13.52;82.86;100607.63;108615;1260;139157;-67
2024/04/09 00:06:26;;;;;;;32.60;24.50;;;;;;;13.48;82.94;100603.73;108817;1260;60153;-68
2024/04/09 00:08:55;;;;;;;34.00;26.60;;;;;;;13.48;83.37;100604.25;108770;1259;75479;-66
2024/04/09 00:11:22;;;;;;;35.00;26.00;;;;;;;13.50;83.58;100604.77;108576;1260;138940;-67
2024/04/09 00:13:53;;;;;;;31.90;25.80;;;;;;;13.50;83.52;100604.61;108750;1260;73982;-66
2024/04/09 00:16:24;;;;;;;32.10;24.40;;;;;;;13.49;83.57;100606.00;108639;1260;138982;-66
2024/04/09 00:18:53;;;;;;;38.50;27.40;;;;;;;13.49;83.84;100608.13;108749;1260;59730;-66
2024/04/09 00:21:21;;;;;;;37.40;26.70;;;;;;;13.49;83.75;100607.42;108627;1260;140443;-67
2024/04/09 00:23:48;;;;;;;33.00;25.50;;;;;;;13.45;83.68;100610.20;108711;1260;66353;-67
2024/04/09 00:26:16;;;;;;;33.80;25.20;;;;;;;13.43;83.80;100611.59;108754;1259;74474;-66
2024/04/09 00:28:43;;;;;;;31.60;24.40;;;;;;;13.40;84.06;100608.21;108505;1260;139701;-68
2024/04/09 00:31:09;;;;;;;35.40;26.10;;;;;;;13.41;84.22;100606.11;108722;1260;61528;-68
2024/04/09 00:33:36;;;;;;;32.80;26.10;;;;;;;13.42;84.34;100599.42;108679;1260;139235;-68
2024/04/09 00:36:04;;;;;;;32.40;24.20;;;;;;;13.42;84.43;100597.65;108677;1260;66972;-68
2024/04/09 00:38:30;;;;;;;33.50;24.10;;;;;;;13.41;84.47;100596.05;108628;1260;73976;-68
2024/04/09 00:40:57;;;;;;;36.20;25.10;;;;;;;13.41;84.43;100598.70;108625;1260;139434;-69
2024/04/09 00:43:24;;;;;;;31.70;26.10;;;;;;;13.40;84.66;100603.98;108762;1260;61338;-68
2024/04/09 00:45:51;;;;;;;36.10;26.20;;;;;;;13.39;84.68;100602.73;108656;1259;139530;-68
2024/04/09 00:48:18;;;;;;;28.10;25.10;;;;;;;13.37;84.77;100600.23;108805;1260;66586;-68
2024/04/09 00:50:45;;;;;;;30.40;24.70;;;;;;;13.34;84.72;100604.09;108683;1259;71199;-65
2024/04/09 00:53:12;;;;;;;41.90;26.40;;;;;;;13.32;84.82;100606.17;108537;1260;139378;-65
2024/04/09 00:55:42;;;;;;;34.80;26.00;;;;;;;13.31;85.09;100605.48;108567;1263;60817;-65
2024/04/09 00:58:10;;;;;;;39.40;27.20;;;;;;;13.30;85.17;100610.03;108471;1260;139060;-64
2024/04/09 01:00:38;;;;;;;36.00;25.60;;;;;;;13.29;85.19;100609.48;108745;1260;65699;-64
2024/04/09 01:03:12;;;;;;;35.10;26.00;;;;;;;13.28;85.24;100609.10;108763;1260;73583;-64
2024/04/09 01:05:39;;;;;;;33.60;26.40;;;;;;;13.28;85.32;100610.33;108607;1259;139435;-68
2024/04/09 01:08:05;;;;;;;32.80;25.40;;;;;;;13.28;85.43;100607.16;108737;1260;60937;-68
2024/04/09 01:10:32;;;;;;;34.70;26.00;;;;;;;13.29;85.49;100606.64;108518;1260;139201;-64
2024/04/09 01:12:59;;;;;;;36.40;26.00;;;;;;;13.31;85.77;100601.94;108701;1260;65968;-64
2024/04/09 01:15:26;;;;;;;32.80;25.70;;;;;;;13.33;85.85;100605.31;108551;1260;139425;-64
2024/04/09 01:17:52;;;;;;;32.20;26.10;;;;;;;13.32;85.87;100605.30;108738;1260;59839;-65
2024/04/09 01:20:19;;;;;;;30.60;25.50;;;;;;;13.30;85.83;100606.86;108786;1259;60475;-67
2024/04/09 01:22:46;;;;;;;34.90;25.70;;;;;;;13.30;85.89;100607.38;108601;1259;139362;-65
2024/04/09 01:25:14;;;;;;;30.50;26.40;;;;;;;13.29;85.89;100614.05;108740;1263;65816;-65
2024/04/09 01:27:41;;;;;;;30.40;25.50;;;;;;;13.28;85.94;100618.43;108653;1260;139284;-66
2024/04/09 01:30:08;;;;;;;31.20;25.60;;;;;;;13.28;85.99;100618.27;108618;1260;62311;-63
2024/04/09 01:32:39;;;;;;;38.90;26.20;;;;;;;13.28;85.88;100621.44;108671;1260;59806;-64
2024/04/09 01:35:08;;;;;;;35.60;25.10;;;;;;;13.26;85.80;100624.40;108584;1260;139091;-63
2024/04/09 01:37:36;;;;;;;32.20;23.40;;;;;;;13.23;85.72;100619.96;108624;1260;65065;-66
2024/04/09 01:40:04;;;;;;;30.40;24.30;;;;;;;13.23;85.80;100617.31;108580;1260;138997;-64
2024/04/09 01:42:31;;;;;;;29.30;23.30;;;;;;;13.21;85.71;100614.48;108483;1262;60685;-66
2024/04/09 01:44:57;;;;;;;30.30;24.80;;;;;;;13.18;85.55;100615.14;108473;1262;59839;-66
2024/04/09 01:47:24;;;;;;;28.00;22.30;;;;;;;13.16;85.63;100617.95;108301;1260;139405;-64
2024/04/09 01:49:52;;;;;;;30.70;24.40;;;;;;;13.16;85.80;100624.29;108482;1260;66440;-66
2024/04/09 01:52:19;;;;;;;29.90;22.70;;;;;;;13.14;85.78;100626.73;108635;1260;139086;-64
2024/04/09 01:54:47;;;;;;;33.70;22.90;;;;;;;13.11;85.70;100633.73;108813;1260;59775;-67
2024/04/09 01:57:14;;;;;;;26.80;22.40;;;;;;;13.10;85.78;100636.55;108717;1260;60067;-68
2024/04/09 01:59:41;;;;;;;29.60;21.90;;;;;;;13.09;85.87;100634.41;108702;1260;75694;-64
2024/04/09 02:02:08;;;;;;;29.90;21.80;;;;;;;13.08;85.89;100630.86;108731;1260;63880;-69
2024/04/09 02:04:34;;;;;;;26.60;21.40;;;;;;;13.08;86.08;100630.52;108433;1260;139414;-68
2024/04/09 02:07:01;;;;;;;23.60;21.10;;;;;;;13.07;86.05;100633.52;108542;1260;61064;-67
2024/04/09 02:09:27;;;;;;;26.30;21.00;;;;;;;13.05;85.96;100634.54;108717;1260;139683;-66
2024/04/09 02:11:54;;;;;;;29.30;22.90;;;;;;;13.05;86.16;100631.19;108450;1260;76537;-67
2024/04/09 02:14:21;;;;;;;24.40;20.80;;;;;;;13.06;86.27;100635.95;108242;1260;66352;-65
2024/04/09 02:16:47;;;;;;;25.10;19.80;;;;;;;13.05;86.05;100641.41;108534;1260;139138;-65
2024/04/09 02:19:14;;;;;;;23.10;19.40;;;;;;;13.03;86.24;100639.80;108690;1260;59715;-67
2024/04/09 02:21:41;;;;;;;25.70;20.10;;;;;;;13.03;86.48;100639.10;108679;1260;139719;-64
2024/04/09 02:24:07;;;;;;;25.10;20.10;;;;;;;13.06;86.69;100639.65;108601;1260;75742;-64
2024/04/09 02:26:34;;;;;;;26.10;20.20;;;;;;;13.09;86.88;100639.70;108594;1260;66238;-64
2024/04/09 02:29:02;;;;;;;33.20;19.80;;;;;;;13.11;86.83;100643.60;108595;1260;139300;-64
2024/04/09 02:31:29;;;;;;;25.20;20.70;;;;;;;13.12;86.82;100643.61;108547;1260;275918;-64
2024/04/09 02:33:55;;;;;;;27.50;21.00;;;;;;;13.11;86.71;100645.19;108650;1260;139409;-63
2024/04/09 02:36:22;;;;;;;25.10;20.80;;;;;;;13.08;86.51;100646.38;108756;1260;74366;-64
2024/04/09 02:38:49;;;;;;;26.10;21.10;;;;;;;13.06;86.47;100648.64;108516;1260;65466;-64
2024/04/09 02:41:17;;;;;;;28.80;20.60;;;;;;;13.03;86.36;100648.80;108414;1260;139157;-63
2024/04/09 02:43:43;;;;;;;24.70;20.60;;;;;;;12.98;86.33;100651.35;108728;1260;60704;-63
2024/04/09 02:46:10;;;;;;;26.40;20.40;;;;;;;12.94;86.34;100652.19;108590;1260;139667;-64
2024/04/09 02:48:37;;;;;;;32.50;21.30;;;;;;;12.91;86.24;100653.38;108791;1260;76208;-63
2024/04/09 02:51:03;;;;;;;27.10;21.30;;;;;;;12.88;86.28;100649.45;108675;1260;66916;-64
2024/04/09 02:53:32;;;;;;;26.50;21.30;;;;;;;12.85;86.23;100653.45;108511;1260;138844;-63
2024/04/09 02:56:03;;;;;;;27.10;20.60;;;;;;;12.80;85.97;100650.93;108704;1260;60520;-63
2024/04/09 02:58:30;;;;;;;31.40;20.70;;;;;;;12.75;85.97;100651.55;108627;1262;139230;-64
2024/04/09 03:00:57;;;;;;;29.40;22.00;;;;;;;12.72;86.02;100654.67;108735;1259;76426;-64
2024/04/09 03:03:24;;;;;;;26.50;20.90;;;;;;;12.70;86.14;100658.71;108650;1260;139496;-64
2024/04/09 03:05:51;;;;;;;22.50;19.50;;;;;;;12.68;86.07;100659.73;108622;1260;73172;-64
2024/04/09 03:08:17;;;;;;;28.70;21.40;;;;;;;12.65;85.97;100660.05;108634;1260;59871;-64
2024/04/09 03:10:44;;;;;;;29.20;20.60;;;;;;;12.61;86.22;100659.63;108576;1261;138944;-64
2024/04/09 03:13:10;;;;;;;23.70;20.50;;;;;;;12.62;86.24;100658.77;108666;1260;75725;-68
2024/04/09 03:15:37;;;;;;;29.00;21.20;;;;;;;12.57;85.93;100655.52;108629;1259;139088;-67
2024/04/09 03:18:04;;;;;;;27.20;22.20;;;;;;;12.53;85.93;100653.16;108537;1260;72915;-68
2024/04/09 03:20:30;;;;;;;28.60;21.20;;;;;;;12.51;86.12;100653.67;108667;1260;60091;-68
2024/04/09 03:22:57;;;;;;;30.00;23.20;;;;;;;12.50;86.22;100656.83;108666;1260;138919;-67
2024/04/09 03:25:23;;;;;;;27.30;22.20;;;;;;;12.52;86.58;100662.66;108661;1260;76324;-68
2024/04/09 03:27:51;;;;;;;62.00;34.20;;;;;;;12.52;86.42;100672.52;108652;1260;139178;-68
2024/04/09 03:30:17;;;;;;;33.10;22.90;;;;;;;12.47;86.02;100676.14;108715;1260;72703;-64
2024/04/09 03:32:44;;;;;;;48.10;28.50;;;;;;;12.41;85.79;100677.10;108699;1260;60352;-64
2024/04/09 03:35:11;;;;;;;331.40;136.50;;;;;;;12.35;85.64;100679.81;108532;1260;139579;-64
2024/04/09 03:37:37;;;;;;;338.30;135.90;;;;;;;12.31;85.79;100679.73;108653;1260;76567;-64
2024/04/09 03:40:05;;;;;;;196.90;84.90;;;;;;;12.27;85.79;100679.66;108459;1260;140285;-64
2024/04/09 03:42:31;;;;;;;108.40;55.10;;;;;;;12.24;85.88;100676.11;108534;1260;73029;-64
2024/04/09 03:44:58;;;;;;;66.00;39.60;;;;;;;12.23;86.04;100673.28;108730;1260;60065;-64
2024/04/09 03:47:24;;;;;;;48.50;30.40;;;;;;;12.20;85.99;100667.79;108625;1260;139032;-64
2024/04/09 03:49:51;;;;;;;53.80;31.70;;;;;;;12.18;85.97;100669.67;108677;1260;75625;-64
2024/04/09 03:52:17;;;;;;;33.30;23.60;;;;;;;12.16;85.96;100670.35;108452;1260;139544;-64
2024/04/09 03:54:46;;;;;;;40.30;24.50;;;;;;;12.12;85.78;100666.75;108789;1264;73215;-64
2024/04/09 03:57:13;;;;;;;40.90;24.50;;;;;;;12.09;85.87;100664.93;108450;1260;59864;-64
2024/04/09 03:59:39;;;;;;;36.30;23.90;;;;;;;12.07;85.97;100668.09;108321;1260;138809;-64
2024/04/09 04:02:06;;;;;;;31.10;20.80;;;;;;;12.06;86.05;100677.39;108488;1260;74298;-67
2024/04/09 04:04:33;;;;;;;25.70;20.30;;;;;;;12.05;86.09;100680.01;108346;1260;139388;-66
2024/04/09 04:07:01;;;;;;;26.60;21.30;;;;;;;12.04;86.05;100682.79;108461;1260;71490;-65
2024/04/09 04:09:27;;;;;;;31.40;21.50;;;;;;;12.04;86.11;100684.02;108425;1260;139394;-67
2024/04/09 04:11:54;;;;;;;34.40;20.70;;;;;;;12.06;86.25;100690.41;108687;1261;60474;-67
2024/04/09 04:14:21;;;;;;;33.10;20.50;;;;;;;12.10;86.54;100700.13;108699;1260;76749;-67
2024/04/09 04:16:47;;;;;;;30.80;20.70;;;;;;;12.14;86.48;100696.70;108347;1260;138978;-63
2024/04/09 04:19:16;;;;;;;28.90;21.20;;;;;;;12.16;86.50;100700.23;108587;1260;72783;-64
2024/04/09 04:21:42;;;;;;;34.20;22.50;;;;;;;12.19;86.46;100696.95;108698;1260;139523;-64
2024/04/09 04:24:09;;;;;;;32.40;22.30;;;;;;;12.25;86.38;100695.48;108417;1260;60749;-62
2024/04/09 04:26:36;;;;;;;27.40;20.90;;;;;;;12.31;86.38;100699.79;108435;1260;76256;-63
2024/04/09 04:29:03;;;;;;;33.50;21.30;;;;;;;12.34;86.27;100700.20;108645;1260;139137;-63
2024/04/09 04:31:29;;;;;;;32.70;19.50;;;;;;;12.38;86.37;100702.04;108426;1260;73826;-63
2024/04/09 04:33:56;;;;;;;26.40;19.60;;;;;;;12.48;86.58;100701.51;108378;1260;139854;-64
2024/04/09 04:36:23;;;;;;;26.00;19.40;;;;;;;12.62;86.77;100700.85;108674;1263;60162;-67
2024/04/09 04:38:49;;;;;;;26.80;21.00;;;;;;;12.78;86.71;100701.08;108678;1260;75625;-66
2024/04/09 04:41:16;;;;;;;26.40;20.40;;;;;;;12.90;86.67;100695.45;108565;1260;138863;-66
2024/04/09 04:43:43;;;;;;;28.90;20.30;;;;;;;13.03;86.79;100689.83;108770;1260;71465;-67
2024/04/09 04:46:10;;;;;;;32.80;20.60;;;;;;;13.24;87.01;100688.88;108565;1259;139389;-66
2024/04/09 04:48:37;;;;;;;29.70;20.70;;;;;;;13.47;87.13;100687.61;108301;1260;60331;-63
2024/04/09 04:51:03;;;;;;;27.10;20.60;;;;;;;13.70;86.91;100682.58;108208;1260;74599;-63
2024/04/09 04:53:30;;;;;;;23.90;18.80;;;;;;;13.92;86.73;100685.64;108431;1260;138982;-63
2024/04/09 04:55:57;;;;;;;29.60;20.10;;;;;;;14.16;86.81;100681.63;108415;1260;72789;-68
2024/04/09 04:58:24;;;;;;;23.20;19.20;;;;;;;14.44;86.69;100679.59;108611;1260;139023;-68
2024/04/09 05:00:52;;;;;;;26.80;19.50;;;;;;;14.75;86.62;100681.43;108461;1260;60141;-68
2024/04/09 05:03:19;;;;;;;29.70;18.90;;;;;;;15.06;86.42;100682.69;108432;1260;140918;-67
2024/04/09 05:05:46;;;;;;;27.10;18.10;;;;;;;15.38;86.20;100676.48;108819;1260;64174;-68
2024/04/09 05:08:12;;;;;;;22.30;17.80;;;;;;;15.67;85.90;100684.38;108755;1260;72353;-72
2024/04/09 05:10:39;;;;;;;26.80;19.20;;;;;;;15.90;85.16;100689.77;108600;1260;139154;-68
2024/04/09 05:13:06;;;;;;;26.00;19.00;;;;;;;16.02;84.33;100694.40;108829;1260;59985;-67
2024/04/09 05:15:33;;;;;;;24.10;17.70;;;;;;;16.12;83.91;100690.52;108606;1260;139745;-70
2024/04/09 05:18:01;;;;;;;31.00;18.80;;;;;;;16.26;83.77;100688.93;108816;1260;66415;-69
2024/04/09 05:20:29;;;;;;;23.70;18.30;;;;;;;16.41;83.55;100688.93;108335;1263;71422;-70
2024/04/09 05:22:57;;;;;;;25.30;18.70;;;;;;;16.56;83.20;100691.95;108543;1260;139063;-69
2024/04/09 05:25:26;;;;;;;22.40;18.50;;;;;;;16.68;82.87;100691.23;108757;1260;61104;-69
2024/04/09 05:27:54;;;;;;;28.90;18.80;;;;;;;16.80;82.51;100689.80;108561;1260;139981;-68
2024/04/09 05:30:20;;;;;;;25.40;18.40;;;;;;;16.91;82.05;100690.87;108774;1260;65775;-68
2024/04/09 05:32:47;;;;;;;22.90;18.10;;;;;;;17.04;82.06;100689.06;108692;1260;71540;-66
2024/04/09 05:35:14;;;;;;;20.40;17.40;;;;;;;17.19;81.89;100684.59;108467;1260;139509;-66
2024/04/09 05:37:42;;;;;;;22.80;17.20;;;;;;;17.33;81.50;100683.48;108631;1260;60049;-63
2024/04/09 05:40:09;;;;;;;27.80;17.70;;;;;;;17.45;81.06;100689.10;108624;1260;139162;-64
2024/04/09 05:42:37;;;;;;;22.70;16.60;;;;;;;17.54;80.77;100687.30;108639;1262;67358;-63
2024/04/09 05:45:08;;;;;;;23.20;16.00;;;;;;;17.68;80.68;100684.02;108785;1260;72969;-63
2024/04/09 05:47:35;;;;;;;22.30;16.30;;;;;;;17.81;80.24;100686.80;108661;1260;138467;-64
2024/04/09 05:50:03;;;;;;;18.00;14.40;;;;;;;17.93;79.86;100685.16;108740;1260;59966;-64
2024/04/09 05:52:31;;;;;;;18.90;15.40;;;;;;;18.00;79.33;100682.80;108624;1260;138866;-64
2024/04/09 05:54:58;;;;;;;23.10;14.40;;;;;;;18.08;79.09;100684.88;108775;1260;66669;-64
2024/04/09 05:57:24;;;;;;;18.80;15.00;;;;;;;18.16;79.04;100692.45;108538;1260;138474;-65
2024/04/09 05:59:54;;;;;;;24.20;14.60;;;;;;;18.25;78.60;100692.92;108706;1260;61238;-63
2024/04/09 06:02:21;;;;;;;19.00;14.10;;;;;;;18.32;78.36;100694.66;108624;1260;60737;-64
2024/04/09 06:04:48;;;;;;;24.70;14.80;;;;;;;18.41;78.30;100693.16;108470;1260;139214;-64
2024/04/09 06:07:15;;;;;;;19.70;13.80;;;;;;;18.51;77.99;100690.41;108785;1260;66440;-64
2024/04/09 06:09:42;;;;;;;19.40;13.60;;;;;;;18.57;77.67;100685.73;108667;1261;139124;-64
2024/04/09 06:12:09;;;;;;;20.40;13.10;;;;;;;18.67;77.72;100685.11;108778;1260;59780;-63
2024/04/09 06:14:36;;;;;;;23.40;14.00;;;;;;;18.77;77.65;100689.65;108779;1260;59924;-63
2024/04/09 06:17:02;;;;;;;19.60;13.90;;;;;;;18.88;77.37;100686.01;108559;1260;138341;-64
2024/04/09 06:19:30;;;;;;;16.60;12.80;;;;;;;18.97;77.20;100686.09;108790;1264;66437;-64
2024/04/09 06:21:56;;;;;;;18.20;13.50;;;;;;;19.07;77.04;100686.34;108682;1260;138859;-64
2024/04/09 06:24:23;;;;;;;17.00;13.40;;;;;;;19.16;76.83;100685.52;108760;1260;59997;-64
2024/04/09 06:26:50;;;;;;;17.50;12.40;;;;;;;19.27;76.52;100693.06;108790;1260;60057;-64
2024/04/09 06:29:16;;;;;;;16.30;12.70;;;;;;;19.34;76.56;100694.56;108682;1260;139181;-65
2024/04/09 06:31:43;;;;;;;17.90;12.50;;;;;;;19.45;76.43;100695.15;108734;1260;65544;-64
2024/04/09 06:34:10;;;;;;;22.70;15.20;;;;;;;19.56;76.21;100698.39;108620;1260;139783;-63
2024/04/09 06:36:37;;;;;;;27.30;19.80;;;;;;;19.65;76.04;100696.15;108786;1260;59701;-64
2024/04/09 06:39:05;;;;;;;23.70;18.70;;;;;;;19.68;75.53;100688.98;108784;1260;59801;-65
2024/04/09 06:41:31;;;;;;;20.60;16.10;;;;;;;19.73;75.31;100692.31;108596;1260;138665;-66
2024/04/09 06:43:58;;;;;;;21.50;15.10;;;;;;;19.84;75.49;100691.09;108788;1260;67400;-65
2024/04/09 06:46:25;;;;;;;22.40;14.60;;;;;;;19.96;75.28;100688.44;108593;1261;138401;-63
2024/04/09 06:48:52;;;;;;;24.70;13.20;;;;;;;20.07;75.24;100685.25;108830;1260;59969;-64
2024/04/09 06:51:19;;;;;;;24.80;13.60;;;;;;;20.18;74.83;100682.59;108613;1260;138820;-64
2024/04/09 06:53:45;;;;;;;22.30;14.40;;;;;;;20.25;74.36;100683.73;108659;1260;76206;-65
2024/04/09 06:56:12;;;;;;;21.10;15.30;;;;;;;20.28;74.29;100683.50;108794;1260;66418;-65
2024/04/09 06:58:39;;;;;;;19.80;14.80;;;;;;;20.31;74.03;100683.27;108658;1260;138267;-64
2024/04/09 07:01:05;;;;;;;27.90;22.20;;;;;;;20.37;73.95;100688.34;108820;1260;59714;-64
2024/04/09 07:03:32;;;;;;;32.30;23.40;;;;;;;20.44;73.82;100689.30;108683;1260;139056;-64
2024/04/09 07:05:59;;;;;;;34.10;17.90;;;;;;;20.54;73.69;100683.06;108710;1260;74289;-64
2024/04/09 07:08:26;;;;;;;20.00;15.40;;;;;;;20.63;73.50;100683.11;108813;1260;64209;-64
2024/04/09 07:10:54;;;;;;;19.60;15.70;;;;;;;20.69;73.21;100688.00;108673;1260;138991;-64
2024/04/09 07:13:21;;;;;;;22.00;15.90;;;;;;;20.78;73.16;100688.39;108831;1260;60113;-63
2024/04/09 07:15:48;;;;;;;25.30;17.20;;;;;;;20.86;72.89;100692.52;108700;1260;138558;-64
2024/04/09 07:18:14;;;;;;;30.00;17.80;;;;;;;20.90;72.56;100693.33;108778;1260;75548;-64
2024/04/09 07:20:41;;;;;;;25.10;17.30;;;;;;;20.91;72.20;100690.47;108795;1260;64357;-65
2024/04/09 07:23:07;;;;;;;23.80;16.80;;;;;;;20.88;72.18;100690.88;108672;1261;138976;-65
2024/04/09 07:25:35;;;;;;;24.00;15.20;;;;;;;20.92;72.23;100689.34;108780;1260;59978;-65
2024/04/09 07:28:01;;;;;;;19.40;14.30;;;;;;;20.99;72.27;100691.92;108632;1260;138920;-65
2024/04/09 07:30:28;;;;;;;17.90;14.40;;;;;;;21.00;72.05;100688.50;108692;1261;73486;-64
2024/04/09 07:32:57;;;;;;;18.10;13.90;;;;;;;21.00;71.86;100687.79;108805;1260;65087;-65
2024/04/09 07:35:24;;;;;;;20.30;13.10;;;;;;;21.02;71.87;100687.94;108645;1260;138301;-65
2024/04/09 07:37:50;;;;;;;19.20;13.40;;;;;;;21.06;71.93;100688.93;108747;1260;60000;-63
2024/04/09 07:40:17;;;;;;;18.00;12.30;;;;;;;21.12;71.80;100686.68;108699;1260;138385;-63
2024/04/09 07:42:44;;;;;;;22.40;13.40;;;;;;;21.17;71.58;100688.55;108756;1260;76496;-63
2024/04/09 07:45:10;;;;;;;17.10;12.50;;;;;;;21.18;71.68;100686.20;108812;1260;66173;-64
2024/04/09 07:47:37;;;;;;;16.20;12.20;;;;;;;21.21;71.33;100686.14;108620;1260;139111;-64
2024/04/09 07:50:09;;;;;;;19.50;12.90;;;;;;;21.25;71.23;100684.45;108730;1260;60018;-65
2024/04/09 07:52:38;;;;;;;18.90;13.00;;;;;;;21.35;71.24;100684.42;108694;1260;138487;-64
2024/04/09 07:55:07;;;;;;;17.50;12.70;;;;;;;21.44;71.12;100684.09;108764;1259;76613;-64
2024/04/09 07:57:35;;;;;;;20.30;12.20;;;;;;;21.52;70.95;100685.52;108577;1263;138510;-64
2024/04/09 08:00:06;;;;;;;19.30;11.80;;;;;;;21.58;70.53;100687.20;108777;1260;71499;-64
2024/04/09 08:02:32;;;;;;;16.30;12.00;;;;;;;21.60;70.39;100689.30;108783;1260;59717;-64
2024/04/09 08:04:59;;;;;;;16.40;12.60;;;;;;;21.65;70.52;100685.27;108691;1260;138672;-64
2024/04/09 08:07:26;;;;;;;14.80;11.60;;;;;;;21.74;70.54;100683.29;108843;1260;75791;-64
2024/04/09 08:09:53;;;;;;;19.50;11.70;;;;;;;21.80;70.36;100685.98;108711;1260;138670;-65
2024/04/09 08:12:19;;;;;;;14.80;11.60;;;;;;;21.84;69.99;100677.70;108668;1260;72816;-64
2024/04/09 08:14:46;;;;;;;18.60;13.60;;;;;;;21.92;70.15;100671.78;108749;1264;59901;-64
2024/04/09 08:17:12;;;;;;;16.80;12.30;;;;;;;22.02;69.93;100673.34;108693;1260;139163;-64
2024/04/09 08:19:39;;;;;;;16.80;12.90;;;;;;;22.04;69.69;100672.05;108737;1260;76516;-64
2024/04/09 08:22:06;;;;;;;19.50;12.70;;;;;;;22.07;69.61;100675.56;108623;1260;138831;-63
2024/04/09 08:24:33;;;;;;;17.50;13.30;;;;;;;22.13;69.59;100675.77;108771;1265;71580;-64
2024/04/09 08:27:00;;;;;;;20.30;12.50;;;;;;;22.24;69.71;100678.36;108760;1265;60091;-64
2024/04/09 08:29:31;;;;;;;22.60;13.20;;;;;;;22.31;69.30;100678.40;108713;1261;138840;-64
2024/04/09 08:31:58;;;;;;;20.90;12.60;;;;;;;22.36;69.23;100677.74;108781;1260;75681;-64
2024/04/09 08:34:24;;;;;;;21.20;12.60;;;;;;;22.41;68.96;100672.61;108726;1261;138899;-64
2024/04/09 08:36:51;;;;;;;19.80;11.90;;;;;;;22.48;68.84;100672.24;108796;1260;73652;-64
2024/04/09 08:39:18;;;;;;;17.50;12.90;;;;;;;22.53;68.51;100670.89;108665;1260;139239;-63
2024/04/09 08:41:45;;;;;;;17.10;12.00;;;;;;;22.56;68.60;100671.89;108810;1260;61839;-63
2024/04/09 08:44:12;;;;;;;17.20;12.40;;;;;;;22.63;68.40;100673.48;108811;1263;76964;-64
2024/04/09 08:46:40;;;;;;;13.70;11.40;;;;;;;22.67;68.34;100668.72;108687;1260;138879;-64
2024/04/09 08:49:08;;;;;;;15.20;12.10;;;;;;;22.69;68.10;100668.84;108824;1263;72138;-64
2024/04/09 08:51:35;;;;;;;17.90;11.10;;;;;;;22.75;68.10;100664.92;108595;1266;138614;-65
2024/04/09 08:54:03;;;;;;;18.10;11.00;;;;;;;22.80;67.60;100660.68;108582;1260;60269;-65
2024/04/09 08:56:30;;;;;;;17.10;11.10;;;;;;;22.83;67.42;100660.05;108669;1261;75366;-64
2024/04/09 08:58:57;;;;;;;17.70;11.10;;;;;;;22.90;67.43;100656.30;108482;1260;138788;-64
2024/04/09 09:01:28;;;;;;;17.00;10.90;;;;;;;22.96;67.32;100653.25;108597;1260;71535;-64
2024/04/09 09:03:55;;;;;;;15.90;11.00;;;;;;;23.01;67.19;100652.23;108571;1260;138941;-64
2024/04/09 09:06:22;;;;;;;14.00;10.20;;;;;;;23.09;67.15;100649.36;108782;1260;61530;-63
2024/04/09 09:08:48;;;;;;;18.10;11.10;;;;;;;23.17;66.75;100652.54;108765;1260;75704;-65
2024/04/09 09:11:21;;;;;;;13.90;10.60;;;;;;;23.20;66.48;100655.31;108679;1260;138282;-65
2024/04/09 09:13:48;;;;;;;17.60;10.40;;;;;;;23.22;66.33;100652.92;108785;1260;72876;-65
2024/04/09 09:16:15;;;;;;;16.90;9.90;;;;;;;23.25;66.26;100651.77;108715;1260;138274;-65
2024/04/09 09:18:41;;;;;;;12.50;9.60;;;;;;;23.28;66.50;100652.03;108803;1260;59834;-65
2024/04/09 09:21:08;;;;;;;13.60;9.40;;;;;;;23.36;66.34;100651.09;108686;1260;76661;-65
2024/04/09 09:23:35;;;;;;;14.30;12.20;;;;;;;23.43;66.22;100653.91;108360;1263;138452;-65
2024/04/09 09:26:05;;;;;;;16.90;11.30;;;;;;;23.44;65.92;100647.60;108585;1260;71996;-65
2024/04/09 09:28:31;;;;;;;16.80;10.20;;;;;;;23.48;65.92;100641.95;108745;1260;138864;-65
2024/04/09 09:30:58;;;;;;;15.90;9.30;;;;;;;23.56;65.81;100645.84;108816;1260;59831;-65
2024/04/09 09:33:26;;;;;;;14.60;9.40;;;;;;;23.61;65.68;100638.85;108664;1263;138806;-65
2024/04/09 09:35:53;;;;;;;12.60;9.70;;;;;;;23.70;65.57;100637.88;108778;1263;65207;-65
2024/04/09 09:38:21;;;;;;;14.70;10.00;;;;;;;23.76;65.15;100638.77;108758;1260;73757;-65
2024/04/09 09:40:49;;;;;;;17.80;9.00;;;;;;;23.78;64.93;100640.13;108715;1260;139276;-65
2024/04/09 09:43:16;;;;;;;15.70;8.80;;;;;;;23.84;64.42;100641.05;108819;1260;60938;-65
2024/04/09 09:45:46;;;;;;;12.20;8.60;;;;;;;23.86;64.05;100641.52;108688;1260;138792;-66
2024/04/09 09:48:19;;;;;;;12.40;7.90;;;;;;;23.85;63.66;100639.55;108845;1260;66190;-66
2024/04/09 09:50:46;;;;;;;12.20;8.70;;;;;;;23.84;63.51;100644.09;108716;1260;72770;-66
2024/04/09 09:53:13;;;;;;;16.00;8.30;;;;;;;23.86;63.43;100647.98;108668;1260;138563;-66
2024/04/09 09:55:40;;;;;;;10.10;8.40;;;;;;;23.93;63.65;100647.06;108721;1260;61229;-66
2024/04/09 09:58:09;;;;;;;15.10;8.50;;;;;;;23.97;63.60;100646.91;108548;1260;138409;-66
2024/04/09 10:00:36;;;;;;;13.40;8.30;;;;;;;24.06;63.68;100641.61;108632;1261;65645;-66
2024/04/09 10:03:02;;;;;;;13.70;7.70;;;;;;;24.14;63.57;100648.16;108788;1260;73649;-66
2024/04/09 10:05:31;;;;;;;19.00;8.40;;;;;;;24.20;63.42;100640.41;108591;1261;138261;-66
2024/04/09 10:08:00;;;;;;;13.70;7.40;;;;;;;24.23;63.14;100637.29;108724;1260;59995;-66
2024/04/09 10:10:29;;;;;;;13.10;7.70;;;;;;;24.27;62.94;100638.56;108639;1260;138185;-66
2024/04/09 10:13:06;;;;;;;18.80;8.40;;;;;;;24.31;62.70;100640.80;108716;1261;67611;-66
2024/04/09 10:15:34;;;;;;;13.60;7.80;;;;;;;24.37;62.60;100643.63;108637;1264;138706;-66
2024/04/09 10:18:04;;;;;;;8.40;7.10;;;;;;;24.40;62.32;100641.72;108789;1260;60257;-67
2024/04/09 10:20:35;;;;;;;13.30;7.20;;;;;;;24.39;62.22;100641.56;108805;1260;59754;-67
2024/04/09 10:23:05;;;;;;;11.00;7.30;;;;;;;24.40;62.06;100637.41;108662;1260;138516;-67
2024/04/09 10:25:39;;;;;;;10.50;7.30;;;;;;;24.43;61.78;100637.86;108811;1261;67221;-66
2024/04/09 10:28:10;;;;;;;12.30;7.20;;;;;;;24.48;61.66;100638.25;108605;1260;138717;-66
2024/04/09 10:30:37;;;;;;;8.80;6.70;;;;;;;24.50;61.36;100638.16;108783;1260;59832;-66
2024/04/09 10:33:04;;;;;;;10.20;6.30;;;;;;;24.54;61.12;100640.56;108807;1260;59815;-66
2024/04/09 10:35:31;;;;;;;12.00;7.10;;;;;;;24.58;61.08;100641.13;108603;1262;138930;-66
2024/04/09 10:38:04;;;;;;;14.30;7.50;;;;;;;24.64;61.06;100641.83;108793;1261;65935;-66
2024/04/09 10:40:33;;;;;;;10.00;8.00;;;;;;;24.67;61.18;100640.11;108695;1260;138861;-67
2024/04/09 10:43:02;;;;;;;15.00;8.30;;;;;;;24.74;61.06;100642.36;108769;1260;59756;-67
2024/04/09 10:45:29;;;;;;;13.40;8.10;;;;;;;24.77;60.96;100642.62;108658;1260;138890;-67
2024/04/09 10:47:57;;;;;;;14.50;10.30;;;;;;;24.82;61.02;100644.05;108726;1261;76237;-67
2024/04/09 10:50:23;;;;;;;12.30;7.70;;;;;;;24.88;60.82;100643.33;108812;1260;65167;-67
2024/04/09 10:52:50;;;;;;;16.00;7.50;;;;;;;24.92;60.79;100639.21;108689;1260;138421;-67
2024/04/09 10:55:16;;;;;;;15.80;8.00;;;;;;;24.98;60.77;100638.27;108728;1260;59806;-67
2024/04/09 10:57:49;;;;;;;12.20;7.30;;;;;;;25.04;60.62;100635.17;108651;1260;139173;-67
2024/04/09 11:00:16;;;;;;;15.80;7.30;;;;;;;25.04;60.25;100630.88;108784;1260;66754;-66